createdAt,value
2022-07-28T00:00:36.420Z,14.82
2022-07-28T00:01:37.896Z,14.83
2022-07-28T00:02:39.445Z,14.81
2022-07-28T00:03:40.969Z,14.86
2022-07-28T00:04:42.525Z,14.86
2022-07-28T00:05:44.035Z,14.80
2022-07-28T00:06:45.489Z,14.76
2022-07-28T00:07:46.925Z,14.68
2022-07-28T00:08:48.450Z,14.67
2022-07-28T00:09:49.946Z,14.72
2022-07-28T00:10:51.426Z,14.81
2022-07-28T00:11:54.919Z,14.71
2022-07-28T00:12:56.597Z,14.68
2022-07-28T00:13:59.456Z,14.69
2022-07-28T00:15:00.953Z,14.74
2022-07-28T00:16:03.065Z,14.85
2022-07-28T00:17:04.590Z,14.75
2022-07-28T00:18:06.140Z,14.71
2022-07-28T00:19:07.665Z,14.69
2022-07-28T00:20:10.343Z,14.67
2022-07-28T00:21:11.801Z,14.60
2022-07-28T00:22:13.294Z,14.57
2022-07-28T00:23:14.775Z,14.51
2022-07-28T00:24:16.648Z,14.49
2022-07-28T00:25:18.404Z,14.45
2022-07-28T00:26:19.886Z,14.46
2022-07-28T00:27:21.405Z,14.45
2022-07-28T00:28:22.874Z,14.51
2022-07-28T00:29:25.984Z,14.47
2022-07-28T00:30:47.414Z,14.34
2022-07-28T00:31:48.971Z,14.35
2022-07-28T00:32:50.606Z,14.36
2022-07-28T00:33:52.138Z,14.43
2022-07-28T00:34:53.884Z,14.35
2022-07-28T00:35:55.896Z,14.40
2022-07-28T00:36:57.356Z,14.38
2022-07-28T00:37:59.013Z,14.38
2022-07-28T00:39:01.580Z,14.28
2022-07-28T00:40:04.318Z,14.26
2022-07-28T00:41:05.980Z,14.28
2022-07-28T00:42:07.757Z,14.29
2022-07-28T00:43:09.181Z,14.27
2022-07-28T00:44:11.231Z,14.23
2022-07-28T00:45:14.317Z,14.18
2022-07-28T00:46:18.497Z,14.23
2022-07-28T00:47:20.498Z,14.24
2022-07-28T00:48:21.999Z,14.25
2022-07-28T00:49:23.524Z,14.30
2022-07-28T00:50:25.005Z,14.28
2022-07-28T00:51:27.318Z,14.35
2022-07-28T00:52:28.924Z,14.19
2022-07-28T00:53:30.402Z,14.27
2022-07-28T00:54:32.426Z,14.26
2022-07-28T00:55:33.877Z,14.11
2022-07-28T00:56:55.417Z,14.19
2022-07-28T00:57:56.990Z,14.15
2022-07-28T00:58:58.457Z,14.18
2022-07-28T00:59:59.909Z,14.19
2022-07-28T01:01:04.702Z,14.22
2022-07-28T01:02:06.610Z,14.18
2022-07-28T01:03:08.403Z,14.19
2022-07-28T01:04:09.961Z,14.09
2022-07-28T01:05:11.404Z,14.09
2022-07-28T01:06:22.783Z,14.07
2022-07-28T01:07:29.471Z,14.05
2022-07-28T01:08:41.098Z,14.04
2022-07-28T01:09:51.230Z,13.90
2022-07-28T01:11:06.966Z,13.92
2022-07-28T01:12:18.316Z,13.78
2022-07-28T01:13:22.247Z,13.83
2022-07-28T01:14:29.343Z,13.67
2022-07-28T01:15:35.329Z,13.58
2022-07-28T01:16:44.666Z,13.55
2022-07-28T01:18:04.761Z,13.48
2022-07-28T01:19:17.236Z,13.50
2022-07-28T01:20:23.565Z,13.48
2022-07-28T01:21:28.813Z,13.54
2022-07-28T01:22:34.534Z,13.42
2022-07-28T01:23:51.540Z,13.27
2022-07-28T01:25:01.641Z,13.40
2022-07-28T01:26:18.804Z,13.51
2022-07-28T01:27:31.602Z,13.28
2022-07-28T01:28:43.285Z,13.45
2022-07-28T01:30:01.237Z,13.40
2022-07-28T01:31:07.393Z,13.44
2022-07-28T01:32:15.223Z,13.51
2022-07-28T01:33:20.021Z,13.35
2022-07-28T01:34:29.484Z,13.37
2022-07-28T01:35:38.376Z,13.40
2022-07-28T01:36:45.066Z,13.28
2022-07-28T01:37:51.554Z,13.26
2022-07-28T01:38:53.855Z,13.20
2022-07-28T01:39:58.679Z,13.25
2022-07-28T01:41:02.153Z,13.26
2022-07-28T01:42:06.666Z,13.19
2022-07-28T01:43:13.388Z,13.07
2022-07-28T01:44:18.616Z,13.17
2022-07-28T01:45:21.509Z,13.11
2022-07-28T01:46:25.879Z,13.15
2022-07-28T01:47:28.893Z,13.06
2022-07-28T01:48:32.489Z,13.12
2022-07-28T01:49:34.990Z,13.09
2022-07-28T01:50:38.396Z,13.02
2022-07-28T01:51:42.039Z,13.00
2022-07-28T01:52:46.163Z,13.04
2022-07-28T01:53:51.030Z,13.12
2022-07-28T01:54:54.862Z,12.90
2022-07-28T01:55:58.467Z,12.94
2022-07-28T01:57:02.194Z,12.90
2022-07-28T01:58:05.126Z,12.87
2022-07-28T01:59:08.584Z,12.90
2022-07-28T02:00:11.181Z,12.90
2022-07-28T02:01:14.507Z,12.92
2022-07-28T02:02:18.337Z,12.82
2022-07-28T02:03:21.982Z,12.94
2022-07-28T02:04:25.495Z,12.79
2022-07-28T02:05:29.525Z,12.92
2022-07-28T02:06:32.074Z,12.74
2022-07-28T02:07:34.769Z,12.70
2022-07-28T02:08:38.290Z,12.84
2022-07-28T02:09:42.947Z,12.83
2022-07-28T02:10:46.087Z,12.83
2022-07-28T02:11:51.849Z,12.88
2022-07-28T02:12:55.986Z,12.82
2022-07-28T02:13:58.255Z,12.94
2022-07-28T02:15:00.350Z,12.87
2022-07-28T02:16:04.424Z,12.64
2022-07-28T02:17:10.677Z,12.69
2022-07-28T02:18:13.670Z,12.70
2022-07-28T02:19:17.707Z,12.64
2022-07-28T02:20:20.448Z,12.69
2022-07-28T02:21:24.795Z,12.73
2022-07-28T02:22:27.431Z,12.76
2022-07-28T02:23:29.003Z,12.65
2022-07-28T02:24:32.141Z,12.61
2022-07-28T02:25:34.952Z,12.56
2022-07-28T02:26:41.285Z,12.69
2022-07-28T02:27:48.018Z,12.70
2022-07-28T02:28:53.727Z,12.76
2022-07-28T02:30:03.893Z,12.84
2022-07-28T02:31:12.634Z,12.79
2022-07-28T02:32:26.888Z,12.92
2022-07-28T02:33:59.485Z,12.87
2022-07-28T02:35:00.755Z,12.70
2022-07-28T02:36:06.813Z,12.68
2022-07-28T02:37:12.043Z,12.82
2022-07-28T02:38:19.091Z,12.84
2022-07-28T02:39:23.621Z,12.82
2022-07-28T02:40:30.540Z,12.84
2022-07-28T02:41:36.425Z,12.86
2022-07-28T02:42:39.257Z,12.87
2022-07-28T02:43:45.854Z,12.74
2022-07-28T02:44:57.114Z,12.77
2022-07-28T02:46:05.119Z,12.76
2022-07-28T02:47:08.800Z,12.84
2022-07-28T02:48:13.222Z,12.80
2022-07-28T02:49:21.361Z,12.69
2022-07-28T02:50:27.007Z,12.65
2022-07-28T02:51:29.523Z,12.71
2022-07-28T02:52:32.798Z,12.67
2022-07-28T02:53:35.018Z,12.73
2022-07-28T02:54:37.200Z,12.63
2022-07-28T02:55:39.956Z,12.76
2022-07-28T02:56:41.885Z,12.75
2022-07-28T02:57:57.029Z,12.76
2022-07-28T02:58:59.722Z,12.67
2022-07-28T03:00:01.967Z,12.55
2022-07-28T03:01:03.955Z,12.60
2022-07-28T03:02:07.032Z,12.60
2022-07-28T03:03:09.403Z,12.60
2022-07-28T03:04:12.342Z,12.47
2022-07-28T03:05:16.298Z,12.55
2022-07-28T03:06:19.016Z,12.47
2022-07-28T03:07:30.063Z,12.42
2022-07-28T03:08:31.547Z,12.37
2022-07-28T03:09:39.023Z,12.37
2022-07-28T03:10:40.641Z,12.35
2022-07-28T03:11:51.979Z,12.33
2022-07-28T03:12:54.377Z,12.37
2022-07-28T03:13:55.825Z,12.31
2022-07-28T03:14:57.256Z,12.40
2022-07-28T03:15:58.690Z,12.31
2022-07-28T03:17:00.226Z,12.19
2022-07-28T03:18:04.419Z,12.36
2022-07-28T03:19:05.854Z,12.32
2022-07-28T03:20:08.559Z,12.36
2022-07-28T03:21:11.341Z,12.30
2022-07-28T03:22:13.134Z,12.30
2022-07-28T03:23:15.663Z,12.35
2022-07-28T03:24:17.571Z,12.42
2022-07-28T03:25:24.083Z,12.38
2022-07-28T03:26:30.691Z,12.45
2022-07-28T03:27:37.042Z,12.48
2022-07-28T03:28:39.506Z,12.40
2022-07-28T03:29:44.340Z,12.48
2022-07-28T03:30:50.334Z,12.33
2022-07-28T03:31:53.679Z,12.33
2022-07-28T03:32:57.981Z,12.34
2022-07-28T03:33:59.591Z,12.42
2022-07-28T03:35:01.470Z,12.38
2022-07-28T03:36:07.435Z,12.45
2022-07-28T03:37:13.206Z,12.45
2022-07-28T03:38:18.718Z,12.44
2022-07-28T03:39:23.967Z,12.41
2022-07-28T03:40:27.278Z,12.45
2022-07-28T03:41:30.054Z,12.28
2022-07-28T03:42:33.134Z,12.26
2022-07-28T03:43:35.214Z,12.30
2022-07-28T03:44:37.831Z,12.33
2022-07-28T03:45:41.111Z,12.51
2022-07-28T03:46:47.615Z,12.53
2022-07-28T03:47:50.325Z,12.48
2022-07-28T03:48:51.869Z,12.53
2022-07-28T03:49:53.385Z,12.51
2022-07-28T03:50:54.896Z,12.42
2022-07-28T03:51:56.373Z,12.50
2022-07-28T03:53:00.466Z,12.44
2022-07-28T03:54:01.946Z,12.41
2022-07-28T03:55:03.899Z,12.60
2022-07-28T03:56:05.491Z,12.57
2022-07-28T03:57:07.030Z,12.61
2022-07-28T03:58:08.490Z,12.54
2022-07-28T03:59:09.979Z,12.52
2022-07-28T04:00:12.555Z,12.53
2022-07-28T04:01:14.097Z,12.45
2022-07-28T04:02:15.588Z,12.51
2022-07-28T04:03:34.841Z,12.55
2022-07-28T04:04:39.711Z,12.50
2022-07-28T04:05:41.163Z,12.57
2022-07-28T04:06:42.660Z,12.46
2022-07-28T04:07:44.751Z,12.41
2022-07-28T04:08:47.540Z,12.45
2022-07-28T04:09:48.990Z,12.44
2022-07-28T04:10:50.917Z,12.44
2022-07-28T04:11:52.383Z,12.51
2022-07-28T04:12:55.298Z,12.54
2022-07-28T04:13:57.002Z,12.48
2022-07-28T04:14:58.457Z,12.48
2022-07-28T04:16:00.299Z,12.52
2022-07-28T04:17:01.893Z,12.49
2022-07-28T04:18:03.525Z,12.39
2022-07-28T04:19:05.045Z,12.41
2022-07-28T04:20:07.562Z,12.40
2022-07-28T04:21:09.543Z,12.42
2022-07-28T04:22:10.988Z,12.28
2022-07-28T04:23:12.459Z,12.39
2022-07-28T04:24:15.592Z,12.38
2022-07-28T04:25:18.652Z,12.43
2022-07-28T04:26:20.245Z,12.39
2022-07-28T04:27:21.717Z,12.43
2022-07-28T04:28:23.172Z,12.33
2022-07-28T04:29:27.423Z,12.32
2022-07-28T04:30:29.130Z,12.34
2022-07-28T04:31:31.010Z,12.39
2022-07-28T04:32:32.558Z,12.45
2022-07-28T04:33:34.027Z,12.51
2022-07-28T04:34:35.476Z,12.46
2022-07-28T04:35:36.979Z,12.53
2022-07-28T04:36:38.465Z,12.53
2022-07-28T04:37:40.199Z,12.52
2022-07-28T04:38:41.662Z,12.57
2022-07-28T04:39:44.447Z,12.53
2022-07-28T04:40:46.030Z,12.48
2022-07-28T04:41:47.463Z,12.53
2022-07-28T04:42:48.918Z,12.56
2022-07-28T04:43:50.386Z,12.66
2022-07-28T04:44:51.894Z,12.70
2022-07-28T04:45:54.629Z,12.71
2022-07-28T04:46:56.218Z,12.73
2022-07-28T04:47:57.678Z,12.70
2022-07-28T04:48:59.186Z,12.59
2022-07-28T04:50:00.656Z,12.65
2022-07-28T04:51:02.136Z,12.71
2022-07-28T04:52:04.065Z,12.63
2022-07-28T04:53:05.497Z,12.78
2022-07-28T04:54:06.966Z,12.74
2022-07-28T04:55:10.245Z,12.76
2022-07-28T04:56:11.764Z,12.77
2022-07-28T04:57:14.515Z,12.85
2022-07-28T04:58:16.095Z,12.84
2022-07-28T04:59:18.317Z,12.91
2022-07-28T05:00:21.602Z,12.90
2022-07-28T05:01:24.660Z,12.91
2022-07-28T05:02:26.698Z,12.91
2022-07-28T05:03:30.536Z,12.99
2022-07-28T05:04:35.748Z,12.98
2022-07-28T05:05:37.334Z,12.95
2022-07-28T05:06:38.833Z,13.09
2022-07-28T05:07:41.301Z,13.10
2022-07-28T05:08:42.751Z,13.22
2022-07-28T05:09:44.269Z,13.12
2022-07-28T05:10:47.026Z,13.12
2022-07-28T05:11:48.550Z,13.18
2022-07-28T05:12:49.977Z,13.13
2022-07-28T05:13:51.424Z,13.14
2022-07-28T05:14:52.858Z,13.28
2022-07-28T05:15:54.291Z,13.27
2022-07-28T05:16:55.762Z,13.31
2022-07-28T05:17:57.247Z,13.46
2022-07-28T05:18:58.690Z,13.40
2022-07-28T05:20:00.235Z,13.40
2022-07-28T05:21:04.936Z,13.50
2022-07-28T05:22:06.412Z,13.54
2022-07-28T05:23:07.864Z,13.66
2022-07-28T05:24:09.340Z,13.73
2022-07-28T05:25:15.793Z,13.70
2022-07-28T05:26:18.727Z,13.77
2022-07-28T05:27:20.314Z,13.72
2022-07-28T05:28:21.903Z,13.74
2022-07-28T05:29:23.987Z,13.70
2022-07-28T05:30:25.593Z,13.86
2022-07-28T05:31:27.164Z,13.96
2022-07-28T05:32:28.716Z,13.87
2022-07-28T05:33:32.014Z,13.75
2022-07-28T05:34:34.062Z,13.90
2022-07-28T05:35:35.755Z,14.09
2022-07-28T05:36:37.280Z,13.99
2022-07-28T05:37:38.795Z,13.99
2022-07-28T05:38:40.226Z,13.90
2022-07-28T05:39:41.654Z,14.02
2022-07-28T05:40:43.122Z,14.08
2022-07-28T05:41:45.877Z,14.02
2022-07-28T05:42:47.348Z,14.18
2022-07-28T05:43:48.795Z,14.16
2022-07-28T05:44:50.246Z,14.33
2022-07-28T05:45:51.967Z,14.31
2022-07-28T05:46:53.536Z,14.24
2022-07-28T05:47:54.971Z,14.15
2022-07-28T05:48:56.479Z,14.25
2022-07-28T05:50:01.448Z,14.43
2022-07-28T05:51:02.950Z,14.52
2022-07-28T05:52:04.652Z,14.53
2022-07-28T05:53:06.083Z,14.33
2022-07-28T05:54:07.536Z,14.50
2022-07-28T05:55:09.429Z,14.78
2022-07-28T05:56:10.950Z,14.63
2022-07-28T05:57:15.466Z,14.64
2022-07-28T05:58:21.055Z,15.11
2022-07-28T05:59:22.533Z,14.85
2022-07-28T06:00:24.256Z,14.88
2022-07-28T06:01:25.817Z,14.97
2022-07-28T06:02:27.336Z,14.81
2022-07-28T06:03:29.521Z,15.11
2022-07-28T06:04:31.436Z,15.43
2022-07-28T06:05:33.757Z,15.65
2022-07-28T06:06:35.249Z,15.28
2022-07-28T06:07:42.717Z,15.40
2022-07-28T06:08:47.027Z,15.34
2022-07-28T06:09:48.507Z,15.10
2022-07-28T06:10:49.999Z,15.34
2022-07-28T06:11:51.472Z,15.45
2022-07-28T06:12:55.405Z,15.65
2022-07-28T06:13:56.915Z,15.61
2022-07-28T06:14:58.405Z,15.35
2022-07-28T06:16:00.378Z,15.17
2022-07-28T06:17:02.028Z,15.23
2022-07-28T06:18:04.486Z,15.25
2022-07-28T06:19:05.916Z,15.26
2022-07-28T06:20:08.840Z,15.47
2022-07-28T06:21:10.300Z,15.62
2022-07-28T06:22:11.883Z,15.37
2022-07-28T06:23:16.282Z,15.43
2022-07-28T06:24:18.168Z,15.08
2022-07-28T06:25:21.399Z,15.43
2022-07-28T06:26:23.779Z,15.65
2022-07-28T06:27:25.530Z,15.71
2022-07-28T06:28:28.389Z,15.57
2022-07-28T06:29:30.185Z,15.47
2022-07-28T06:30:31.940Z,15.51
2022-07-28T06:31:33.521Z,15.65
2022-07-28T06:32:35.027Z,15.70
2022-07-28T06:33:36.481Z,15.73
2022-07-28T06:34:37.982Z,15.99
2022-07-28T06:35:46.529Z,16.04
2022-07-28T06:36:52.656Z,16.11
2022-07-28T06:37:55.037Z,15.98
2022-07-28T06:38:56.605Z,15.91
2022-07-28T06:39:58.104Z,16.07
2022-07-28T06:40:59.569Z,16.04
2022-07-28T06:42:01.023Z,16.10
2022-07-28T06:43:02.644Z,16.28
2022-07-28T06:44:05.499Z,16.40
2022-07-28T06:45:21.265Z,16.55
2022-07-28T06:46:23.225Z,16.72
2022-07-28T06:47:24.859Z,16.81
2022-07-28T06:48:29.219Z,17.13
2022-07-28T06:49:31.276Z,17.08
2022-07-28T06:50:33.080Z,16.70
2022-07-28T06:51:34.563Z,16.44
2022-07-28T06:52:39.955Z,16.77
2022-07-28T06:53:41.435Z,16.78
2022-07-28T06:54:48.562Z,16.68
2022-07-28T06:55:50.449Z,16.80
2022-07-28T06:56:52.215Z,16.74
2022-07-28T06:57:54.170Z,16.67
2022-07-28T06:58:55.616Z,16.98
2022-07-28T06:59:58.409Z,17.17
2022-07-28T07:01:00.011Z,16.95
2022-07-28T07:02:01.572Z,17.27
2022-07-28T07:03:03.292Z,17.00
2022-07-28T07:04:05.228Z,16.84
2022-07-28T07:05:08.118Z,17.22
2022-07-28T07:06:09.591Z,17.20
2022-07-28T07:07:11.903Z,17.35
2022-07-28T07:08:18.663Z,17.50
2022-07-28T07:09:20.139Z,17.30
2022-07-28T07:10:21.647Z,17.34
2022-07-28T07:11:23.190Z,17.64
2022-07-28T07:12:24.733Z,17.57
2022-07-28T07:13:26.405Z,17.41
2022-07-28T07:14:28.322Z,17.56
2022-07-28T07:15:31.102Z,17.86
2022-07-28T07:16:36.348Z,17.43
2022-07-28T07:17:37.939Z,17.28
2022-07-28T07:18:39.385Z,17.60
2022-07-28T07:19:40.829Z,17.61
2022-07-28T07:20:42.281Z,17.76
2022-07-28T07:21:43.835Z,17.76
2022-07-28T07:22:46.875Z,17.95
2022-07-28T07:23:49.695Z,17.98
2022-07-28T07:24:56.720Z,18.19
2022-07-28T07:25:58.705Z,17.68
2022-07-28T07:27:00.167Z,17.76
2022-07-28T07:28:01.625Z,17.79
2022-07-28T07:29:03.282Z,18.00
2022-07-28T07:30:06.593Z,18.36
2022-07-28T07:31:09.577Z,18.19
2022-07-28T07:32:11.240Z,18.13
2022-07-28T07:33:12.771Z,18.18
2022-07-28T07:34:14.688Z,18.31
2022-07-28T07:35:16.393Z,18.24
2022-07-28T07:36:18.062Z,18.14
2022-07-28T07:37:19.517Z,18.43
2022-07-28T07:38:21.451Z,18.83
2022-07-28T07:39:24.576Z,18.88
2022-07-28T07:40:26.014Z,19.02
2022-07-28T07:41:27.504Z,18.90
2022-07-28T07:42:29.220Z,18.48
2022-07-28T07:43:30.751Z,18.76
2022-07-28T07:44:32.195Z,18.94
2022-07-28T07:45:33.653Z,19.20
2022-07-28T07:46:37.343Z,18.58
2022-07-28T07:47:38.845Z,18.80
2022-07-28T07:48:40.420Z,19.15
2022-07-28T07:49:45.685Z,19.39
2022-07-28T07:50:53.391Z,19.50
2022-07-28T07:51:55.387Z,19.47
2022-07-28T07:52:56.865Z,19.34
2022-07-28T07:53:58.642Z,19.51
2022-07-28T07:55:00.107Z,19.18
2022-07-28T07:56:01.868Z,18.90
2022-07-28T07:57:03.363Z,19.15
2022-07-28T07:58:05.219Z,19.23
2022-07-28T07:59:06.719Z,19.63
2022-07-28T08:00:28.175Z,19.40
2022-07-28T08:01:30.735Z,19.86
2022-07-28T08:02:33.566Z,19.49
2022-07-28T08:03:35.002Z,18.96
2022-07-28T08:04:38.520Z,19.20
2022-07-28T08:05:40.713Z,19.62
2022-07-28T08:06:42.171Z,19.52
2022-07-28T08:07:44.139Z,19.54
2022-07-28T08:08:48.656Z,19.89
2022-07-28T08:09:50.213Z,20.15
2022-07-28T08:10:51.661Z,19.82
2022-07-28T08:11:53.086Z,19.97
2022-07-28T08:12:54.533Z,19.96
2022-07-28T08:13:55.997Z,20.26
2022-07-28T08:14:57.478Z,20.37
2022-07-28T08:15:58.968Z,19.87
2022-07-28T08:17:00.977Z,19.84
2022-07-28T08:18:04.346Z,19.90
2022-07-28T08:19:06.048Z,19.90
2022-07-28T08:20:09.159Z,19.68
2022-07-28T08:21:10.705Z,19.77
2022-07-28T08:22:12.185Z,19.91
2022-07-28T08:23:13.765Z,20.08
2022-07-28T08:24:27.780Z,20.57
2022-07-28T08:25:36.547Z,20.77
2022-07-28T08:26:38.053Z,20.27
2022-07-28T08:27:39.516Z,20.47
2022-07-28T08:28:40.953Z,20.52
2022-07-28T08:29:42.476Z,21.19
2022-07-28T08:30:43.936Z,21.33
2022-07-28T08:31:45.500Z,21.39
2022-07-28T08:32:47.227Z,21.05
2022-07-28T08:33:59.921Z,21.25
2022-07-28T08:35:30.361Z,21.43
2022-07-28T08:36:22.857Z,21.51
2022-07-28T08:37:24.383Z,21.65
2022-07-28T08:38:25.869Z,21.92
2022-07-28T08:39:27.326Z,21.85
2022-07-28T08:40:30.259Z,22.14
2022-07-28T08:41:36.918Z,21.91
2022-07-28T08:42:47.966Z,22.43
2022-07-28T08:43:52.657Z,22.22
2022-07-28T08:44:58.662Z,22.03
2022-07-28T08:46:05.026Z,22.12
2022-07-28T08:47:10.248Z,21.44
2022-07-28T08:48:13.165Z,21.19
2022-07-28T08:49:16.739Z,21.03
2022-07-28T08:50:21.288Z,21.66
2022-07-28T08:51:27.200Z,21.25
2022-07-28T08:52:30.733Z,21.23
2022-07-28T08:53:34.269Z,21.33
2022-07-28T08:54:36.309Z,22.02
2022-07-28T08:55:38.873Z,22.35
2022-07-28T08:56:41.373Z,22.33
2022-07-28T08:57:50.652Z,22.87
2022-07-28T08:58:52.755Z,22.69
2022-07-28T08:59:54.680Z,23.13
2022-07-28T09:00:56.556Z,22.89
2022-07-28T09:01:58.416Z,23.23
2022-07-28T09:03:01.794Z,22.97
2022-07-28T09:04:03.828Z,22.75
2022-07-28T09:05:09.190Z,22.32
2022-07-28T09:06:11.170Z,22.37
2022-07-28T09:07:13.107Z,22.27
2022-07-28T09:08:17.590Z,22.55
2022-07-28T09:09:19.682Z,22.67
2022-07-28T09:10:21.195Z,22.60
2022-07-28T09:11:22.799Z,21.90
2022-07-28T09:12:26.759Z,21.67
2022-07-28T09:13:28.897Z,22.00
2022-07-28T09:14:30.447Z,22.24
2022-07-28T09:15:31.958Z,22.78
2022-07-28T09:16:33.688Z,23.01
2022-07-28T09:17:35.912Z,23.16
2022-07-28T09:18:37.401Z,23.40
2022-07-28T09:19:39.339Z,23.63
2022-07-28T09:20:43.261Z,23.74
2022-07-28T09:21:47.012Z,23.48
2022-07-28T09:22:56.547Z,23.05
2022-07-28T09:23:58.080Z,22.98
2022-07-28T09:24:59.612Z,23.17
2022-07-28T09:26:10.937Z,23.21
2022-07-28T09:27:14.585Z,23.23
2022-07-28T09:28:20.318Z,23.42
2022-07-28T09:29:23.749Z,23.44
2022-07-28T09:30:29.967Z,23.25
2022-07-28T09:31:31.550Z,23.46
2022-07-28T09:32:33.072Z,22.71
2022-07-28T09:33:41.902Z,22.66
2022-07-28T09:34:47.646Z,22.81
2022-07-28T09:35:52.287Z,22.78
2022-07-28T09:36:53.889Z,23.37
2022-07-28T09:37:59.211Z,23.01
2022-07-28T09:39:00.690Z,23.46
2022-07-28T09:40:11.273Z,23.76
2022-07-28T09:41:13.240Z,23.25
2022-07-28T09:42:14.869Z,23.27
2022-07-28T09:43:16.326Z,23.20
2022-07-28T09:44:18.913Z,23.24
2022-07-28T09:45:27.286Z,23.29
2022-07-28T09:46:29.874Z,23.10
2022-07-28T09:47:31.952Z,23.39
2022-07-28T09:48:34.328Z,23.46
2022-07-28T09:49:41.406Z,23.34
2022-07-28T09:50:44.514Z,23.45
2022-07-28T09:52:01.786Z,23.29
2022-07-28T09:53:20.907Z,23.50
2022-07-28T09:54:22.934Z,24.00
2022-07-28T09:55:24.508Z,24.19
2022-07-28T09:56:31.183Z,23.88
2022-07-28T09:57:36.329Z,24.44
2022-07-28T09:58:39.754Z,23.98
2022-07-28T09:59:42.643Z,23.78
2022-07-28T10:00:46.867Z,23.94
2022-07-28T10:01:53.719Z,23.63
2022-07-28T10:02:55.336Z,23.39
2022-07-28T10:03:58.075Z,23.70
2022-07-28T10:05:05.874Z,23.64
2022-07-28T10:06:08.013Z,23.91
2022-07-28T10:07:12.573Z,24.09
2022-07-28T10:08:14.026Z,23.98
2022-07-28T10:09:26.399Z,23.55
2022-07-28T10:10:27.875Z,23.87
2022-07-28T10:11:30.191Z,23.90
2022-07-28T10:12:33.390Z,23.91
2022-07-28T10:13:35.234Z,24.21
2022-07-28T10:14:36.788Z,24.18
2022-07-28T10:15:38.312Z,24.31
2022-07-28T10:16:48.270Z,24.31
2022-07-28T10:17:49.787Z,24.07
2022-07-28T10:18:51.867Z,23.98
2022-07-28T10:19:53.578Z,23.81
2022-07-28T10:20:55.300Z,24.00
2022-07-28T10:21:58.435Z,23.71
2022-07-28T10:23:02.842Z,23.97
2022-07-28T10:24:06.167Z,24.09
2022-07-28T10:25:09.396Z,24.26
2022-07-28T10:26:13.153Z,24.09
2022-07-28T10:27:15.803Z,23.80
2022-07-28T10:28:20.707Z,23.74
2022-07-28T10:29:23.503Z,23.59
2022-07-28T10:30:27.834Z,24.02
2022-07-28T10:31:33.864Z,24.46
2022-07-28T10:32:40.730Z,24.30
2022-07-28T10:33:47.723Z,23.56
2022-07-28T10:34:51.955Z,23.38
2022-07-28T10:35:55.138Z,23.66
2022-07-28T10:37:01.959Z,23.95
2022-07-28T10:38:10.095Z,23.60
2022-07-28T10:39:19.520Z,23.90
2022-07-28T10:40:24.876Z,24.46
2022-07-28T10:41:35.529Z,24.66
2022-07-28T10:42:39.372Z,23.98
2022-07-28T10:43:42.884Z,24.24
2022-07-28T10:44:47.924Z,24.49
2022-07-28T10:46:07.468Z,24.55
2022-07-28T10:47:18.195Z,24.57
2022-07-28T10:48:20.954Z,24.45
2022-07-28T10:49:27.634Z,24.61
2022-07-28T10:50:35.568Z,25.21
2022-07-28T10:51:53.887Z,25.03
2022-07-28T10:53:02.018Z,25.06
2022-07-28T10:54:17.765Z,24.42
2022-07-28T10:55:35.651Z,24.78
2022-07-28T10:56:46.369Z,25.16
2022-07-28T10:58:02.160Z,24.92
2022-07-28T10:59:46.679Z,24.72
2022-07-28T11:00:57.237Z,24.75
2022-07-28T11:02:03.665Z,25.15
2022-07-28T11:03:13.387Z,24.42
2022-07-28T11:04:48.840Z,24.83
2022-07-28T11:05:50.297Z,24.93
2022-07-28T11:06:51.786Z,24.66
2022-07-28T11:07:53.614Z,24.30
2022-07-28T11:08:56.442Z,24.14
2022-07-28T11:10:15.574Z,24.52
2022-07-28T11:11:43.897Z,24.09
2022-07-28T11:12:46.028Z,24.00
2022-07-28T11:13:47.509Z,24.01
2022-07-28T11:14:53.088Z,23.84
2022-07-28T11:15:54.715Z,23.96
2022-07-28T11:17:24.170Z,24.45
2022-07-28T11:18:26.296Z,24.83
2022-07-28T11:19:36.563Z,24.69
2022-07-28T11:21:07.964Z,25.00
2022-07-28T11:22:26.906Z,24.82
2022-07-28T11:23:46.576Z,24.69
2022-07-28T11:25:20.862Z,24.39
2022-07-28T11:26:28.458Z,24.49
2022-07-28T11:28:00.327Z,24.82
2022-07-28T11:29:18.457Z,25.04
2022-07-28T11:30:51.237Z,24.69
2022-07-28T11:31:57.978Z,24.82
2022-07-28T11:33:00.339Z,24.44
2022-07-28T11:34:02.159Z,25.09
2022-07-28T11:35:08.968Z,24.97
2022-07-28T11:36:10.492Z,25.02
2022-07-28T11:37:14.968Z,25.32
2022-07-28T11:38:16.993Z,25.27
2022-07-28T11:39:22.287Z,25.16
2022-07-28T11:40:33.479Z,24.63
2022-07-28T11:41:35.176Z,24.88
2022-07-28T11:42:36.806Z,24.72
2022-07-28T11:43:39.491Z,24.75
2022-07-28T11:44:41.069Z,24.87
2022-07-28T11:45:47.788Z,25.28
2022-07-28T11:47:16.053Z,25.31
2022-07-28T11:48:19.410Z,25.22
2022-07-28T11:49:24.399Z,24.79
2022-07-28T11:50:25.928Z,24.40
2022-07-28T11:51:28.669Z,24.82
2022-07-28T11:52:33.692Z,24.69
2022-07-28T11:53:35.522Z,24.30
2022-07-28T11:54:38.385Z,24.11
2022-07-28T11:55:55.431Z,23.96
2022-07-28T11:57:05.210Z,24.37
2022-07-28T11:58:06.650Z,24.82
2022-07-28T11:59:08.148Z,25.22
2022-07-28T12:00:10.481Z,25.19
2022-07-28T12:01:18.139Z,25.18
2022-07-28T12:02:23.193Z,25.17
2022-07-28T12:03:49.394Z,24.94
2022-07-28T12:05:03.571Z,24.84
2022-07-28T12:06:05.420Z,24.91
2022-07-28T12:07:07.837Z,24.63
2022-07-28T12:08:09.461Z,24.58
2022-07-28T12:09:11.365Z,24.44
2022-07-28T12:10:53.516Z,24.31
2022-07-28T12:11:47.385Z,24.55
2022-07-28T12:12:50.001Z,24.45
2022-07-28T12:13:58.904Z,24.61
2022-07-28T12:15:06.392Z,24.62
2022-07-28T12:16:08.490Z,24.84
2022-07-28T12:17:10.133Z,24.96
2022-07-28T12:18:13.857Z,24.58
2022-07-28T12:19:17.188Z,24.34
2022-07-28T12:20:20.538Z,24.71
2022-07-28T12:21:35.633Z,24.33
2022-07-28T12:22:37.225Z,24.34
2022-07-28T12:23:45.773Z,24.70
2022-07-28T12:24:56.806Z,24.73
2022-07-28T12:25:58.298Z,25.12
2022-07-28T12:27:01.127Z,25.21
2022-07-28T12:28:13.610Z,25.20
2022-07-28T12:29:15.372Z,25.06
2022-07-28T12:30:22.568Z,24.82
2022-07-28T12:31:24.405Z,24.69
2022-07-28T12:32:32.168Z,24.57
2022-07-28T12:33:33.600Z,24.59
2022-07-28T12:34:36.690Z,24.95
2022-07-28T12:35:38.153Z,25.01
2022-07-28T12:36:39.682Z,24.90
2022-07-28T12:37:41.654Z,24.69
2022-07-28T12:38:43.140Z,24.80
2022-07-28T12:39:50.766Z,24.90
2022-07-28T12:40:52.410Z,25.38
2022-07-28T12:42:06.093Z,25.29
2022-07-28T12:43:07.776Z,25.44
2022-07-28T12:44:10.220Z,25.34
2022-07-28T12:45:12.789Z,25.34
2022-07-28T12:46:20.063Z,25.02
2022-07-28T12:47:26.793Z,25.67
2022-07-28T12:48:28.364Z,25.46
2022-07-28T12:49:29.963Z,25.33
2022-07-28T12:50:37.250Z,25.26
2022-07-28T12:57:46.134Z,25.39
2022-07-28T12:59:03.160Z,25.43
2022-07-28T13:01:48.996Z,25.28
2022-07-28T13:02:52.327Z,25.24
2022-07-28T13:03:54.215Z,25.26
2022-07-28T13:04:55.809Z,25.47
2022-07-28T13:05:57.642Z,25.57
2022-07-28T13:06:59.168Z,25.35
2022-07-28T13:08:01.997Z,25.55
2022-07-28T13:09:04.254Z,25.48
2022-07-28T13:10:12.371Z,25.68
2022-07-28T13:11:42.683Z,25.77
2022-07-28T13:12:37.342Z,26.01
2022-07-28T13:13:48.028Z,25.40
2022-07-28T13:14:51.652Z,25.47
2022-07-28T13:16:13.111Z,25.76
2022-07-28T13:17:14.500Z,25.89
2022-07-28T13:18:16.033Z,26.06
2022-07-28T13:19:21.318Z,25.80
2022-07-28T13:20:23.381Z,25.96
2022-07-28T13:21:39.241Z,26.01
2022-07-28T13:22:41.610Z,25.36
2022-07-28T13:23:43.314Z,25.43
2022-07-28T13:24:44.755Z,25.39
2022-07-28T13:25:46.250Z,25.39
2022-07-28T13:26:47.674Z,25.55
2022-07-28T13:27:55.058Z,25.89
2022-07-28T13:29:01.100Z,26.00
2022-07-28T13:30:02.914Z,25.66
2022-07-28T13:31:04.415Z,25.63
2022-07-28T13:32:06.714Z,25.69
2022-07-28T13:33:13.619Z,25.58
2022-07-28T13:34:16.197Z,25.24
2022-07-28T13:35:20.986Z,24.49
2022-07-28T13:36:22.670Z,24.55
2022-07-28T13:37:24.353Z,24.87
2022-07-28T13:38:25.872Z,24.82
2022-07-28T13:39:27.321Z,25.01
2022-07-28T13:40:28.882Z,25.21
2022-07-28T13:41:42.047Z,25.23
2022-07-28T13:42:52.921Z,25.09
2022-07-28T13:43:57.830Z,24.98
2022-07-28T13:45:01.812Z,24.94
2022-07-28T13:46:06.751Z,25.09
2022-07-28T13:47:08.445Z,25.22
2022-07-28T13:48:09.884Z,25.03
2022-07-28T13:49:11.554Z,25.10
2022-07-28T13:50:13.752Z,25.38
2022-07-28T13:51:17.408Z,25.15
2022-07-28T13:52:32.676Z,25.29
2022-07-28T13:53:36.836Z,25.59
2022-07-28T13:54:41.117Z,25.83
2022-07-28T13:55:42.600Z,25.85
2022-07-28T13:56:44.022Z,25.88